createdAt,value
2023-01-12T00:02:00.867Z,8.77
2023-01-12T00:04:30.620Z,8.43
2023-01-12T00:07:01.844Z,11.65
2023-01-12T00:09:29.180Z,11.48
2023-01-12T00:11:56.451Z,8.32
2023-01-12T00:14:23.746Z,8.48
2023-01-12T00:16:51.037Z,8.13
2023-01-12T00:19:20.706Z,10.07
2023-01-12T00:22:01.329Z,10.88
2023-01-12T00:24:39.075Z,8.82
2023-01-12T00:27:09.495Z,9.50
2023-01-12T00:29:37.539Z,11.98
2023-01-12T00:32:06.268Z,10.32
2023-01-12T00:34:33.777Z,11.98
2023-01-12T00:37:01.672Z,13.35
2023-01-12T00:39:29.054Z,11.57
2023-01-12T00:42:15.340Z,11.07
2023-01-12T00:45:01.226Z,15.50
2023-01-12T00:47:28.566Z,13.50
2023-01-12T00:49:55.771Z,14.32
2023-01-12T00:52:30.730Z,15.43
2023-01-12T00:54:59.801Z,13.82
2023-01-12T00:57:28.354Z,13.63
2023-01-12T00:59:58.128Z,14.77
2023-01-12T01:02:26.735Z,13.55
2023-01-12T01:04:53.987Z,14.40
2023-01-12T01:07:24.314Z,14.35
2023-01-12T01:09:52.075Z,15.93
2023-01-12T01:12:19.849Z,18.40
2023-01-12T01:14:50.166Z,13.18
2023-01-12T01:17:17.645Z,15.30
2023-01-12T01:19:44.977Z,11.85
2023-01-12T01:22:13.080Z,13.30
2023-01-12T01:24:41.547Z,15.32
2023-01-12T01:27:08.955Z,13.00
2023-01-12T01:29:36.574Z,13.77
2023-01-12T01:32:04.035Z,12.77
2023-01-12T01:34:31.380Z,13.35
2023-01-12T01:36:59.325Z,11.43
2023-01-12T01:39:26.743Z,14.30
2023-01-12T01:41:54.408Z,13.90
2023-01-12T01:44:30.713Z,11.65
2023-01-12T01:47:04.128Z,9.48
2023-01-12T01:49:39.529Z,11.90
2023-01-12T01:52:23.821Z,9.00
2023-01-12T01:55:03.130Z,12.30
2023-01-12T01:58:03.325Z,9.07
2023-01-12T02:00:30.695Z,12.02
2023-01-12T02:02:59.716Z,11.48
2023-01-12T02:05:29.057Z,10.45
2023-01-12T02:08:01.684Z,13.32
2023-01-12T02:10:28.991Z,9.68
2023-01-12T02:13:15.026Z,12.23
2023-01-12T02:16:23.046Z,10.38
2023-01-12T02:19:31.265Z,10.10
2023-01-12T02:22:04.694Z,9.93
2023-01-12T02:24:31.900Z,8.75
2023-01-12T02:27:20.899Z,10.32
2023-01-12T02:30:07.092Z,9.45
2023-01-12T02:32:34.402Z,9.05
2023-01-12T02:35:37.087Z,11.73
2023-01-12T02:38:29.606Z,10.65
2023-01-12T02:41:11.018Z,7.93
2023-01-12T02:43:40.235Z,9.63
2023-01-12T02:46:25.660Z,9.25
2023-01-12T02:49:13.370Z,11.55
2023-01-12T02:51:58.047Z,10.68
2023-01-12T02:54:26.987Z,7.07
2023-01-12T02:57:00.643Z,12.18
2023-01-12T02:59:31.432Z,9.80
2023-01-12T03:02:10.194Z,10.52
2023-01-12T03:04:37.966Z,6.90
2023-01-12T03:07:05.156Z,7.68
2023-01-12T03:09:41.970Z,6.90
2023-01-12T03:12:30.997Z,7.35
2023-01-12T03:15:02.169Z,5.97
2023-01-12T03:17:38.412Z,5.93
2023-01-12T03:20:31.285Z,6.63
2023-01-12T03:23:07.672Z,7.15
2023-01-12T03:25:36.816Z,7.70
2023-01-12T03:28:07.033Z,7.35
2023-01-12T03:30:41.790Z,9.48
2023-01-12T03:33:11.003Z,6.70
2023-01-12T03:35:51.258Z,5.43
2023-01-12T03:38:50.132Z,6.25
2023-01-12T03:41:41.976Z,7.38
2023-01-12T03:44:18.647Z,4.82
2023-01-12T03:46:56.048Z,5.30
2023-01-12T03:49:36.745Z,5.05
2023-01-12T03:52:07.471Z,3.95
2023-01-12T03:54:37.565Z,5.65
2023-01-12T03:57:06.285Z,6.88
2023-01-12T03:59:33.715Z,6.30
2023-01-12T04:02:01.011Z,5.60
2023-01-12T04:04:28.313Z,5.68
2023-01-12T04:06:55.882Z,6.53
2023-01-12T04:09:25.360Z,4.30
2023-01-12T04:12:11.240Z,4.32
2023-01-12T04:14:46.876Z,4.55
2023-01-12T04:17:16.046Z,4.88
2023-01-12T04:19:43.418Z,5.22
2023-01-12T04:22:33.171Z,6.00
2023-01-12T04:25:00.435Z,5.45
2023-01-12T04:27:27.807Z,5.30
2023-01-12T04:29:55.184Z,6.93
2023-01-12T04:32:22.667Z,4.93
2023-01-12T04:34:50.092Z,3.95
2023-01-12T04:37:17.366Z,4.75
2023-01-12T04:39:44.596Z,4.53
2023-01-12T04:42:31.764Z,3.95
2023-01-12T04:44:59.049Z,3.38
2023-01-12T04:47:26.287Z,4.85
2023-01-12T04:49:53.601Z,5.00
2023-01-12T04:52:20.873Z,4.05
2023-01-12T04:54:48.165Z,3.10
2023-01-12T04:57:15.415Z,4.63
2023-01-12T04:59:42.736Z,4.40
2023-01-12T05:02:10.061Z,4.50
2023-01-12T05:04:37.354Z,3.70
2023-01-12T05:07:04.578Z,3.58
2023-01-12T05:09:50.428Z,2.40
2023-01-12T05:12:17.827Z,3.60
2023-01-12T05:14:45.055Z,4.30
2023-01-12T05:17:12.289Z,3.22
2023-01-12T05:19:39.554Z,3.38
2023-01-12T05:22:06.927Z,4.35
2023-01-12T05:24:34.383Z,3.85
2023-01-12T05:27:02.061Z,4.10
2023-01-12T05:29:29.581Z,3.63
2023-01-12T05:31:56.850Z,3.55
2023-01-12T05:34:24.173Z,3.53
2023-01-12T05:36:51.646Z,2.85
2023-01-12T05:39:19.674Z,4.57
2023-01-12T05:42:05.336Z,4.22
2023-01-12T05:44:32.601Z,2.28
2023-01-12T05:46:59.804Z,3.30
2023-01-12T05:49:27.184Z,4.47
2023-01-12T05:51:54.482Z,4.30
2023-01-12T05:54:21.820Z,4.22
2023-01-12T05:56:49.988Z,4.03
2023-01-12T05:59:17.366Z,3.15
2023-01-12T06:01:44.637Z,4.13
2023-01-12T06:04:13.891Z,2.42
2023-01-12T06:06:41.792Z,3.85
2023-01-12T06:09:09.226Z,3.97
2023-01-12T06:11:55.000Z,3.58
2023-01-12T06:14:22.375Z,3.55
2023-01-12T06:16:49.603Z,7.43
2023-01-12T06:19:16.928Z,3.58
2023-01-12T06:21:44.185Z,5.70
2023-01-12T06:24:11.613Z,4.00
2023-01-12T06:26:39.082Z,5.40
2023-01-12T06:29:07.161Z,5.45
2023-01-12T06:31:35.041Z,5.57
2023-01-12T06:34:02.399Z,6.50
2023-01-12T06:36:29.662Z,4.28
2023-01-12T06:38:56.900Z,5.70
2023-01-12T06:41:43.001Z,5.40
2023-01-12T06:44:10.282Z,7.68
2023-01-12T06:46:37.593Z,4.43
2023-01-12T06:49:05.096Z,6.70
2023-01-12T06:51:32.387Z,6.45
2023-01-12T06:53:59.927Z,6.68
2023-01-12T06:56:27.212Z,4.45
2023-01-12T06:58:54.584Z,5.65
2023-01-12T07:01:21.920Z,8.27
2023-01-12T07:03:49.198Z,7.32
2023-01-12T07:06:16.623Z,7.70
2023-01-12T07:08:43.941Z,6.22
2023-01-12T07:11:15.072Z,6.80
2023-01-12T07:13:42.506Z,7.13
2023-01-12T07:16:09.942Z,7.47
2023-01-12T07:18:37.211Z,8.60
2023-01-12T07:21:07.111Z,9.32
2023-01-12T07:23:35.045Z,6.93
2023-01-12T07:26:02.441Z,8.55
2023-01-12T07:28:31.420Z,10.80
2023-01-12T07:31:01.641Z,7.10
2023-01-12T07:33:29.167Z,6.80
2023-01-12T07:36:00.368Z,10.27
2023-01-12T07:38:28.592Z,10.23
2023-01-12T07:41:00.193Z,9.82
2023-01-12T07:43:27.945Z,7.40
2023-01-12T07:45:59.321Z,9.40
2023-01-12T07:48:27.540Z,10.20
2023-01-12T07:50:55.060Z,8.20
2023-01-12T07:53:22.496Z,9.73
2023-01-12T07:55:49.838Z,11.38
2023-01-12T07:58:17.116Z,8.50
2023-01-12T08:00:44.396Z,11.50
2023-01-12T08:03:14.097Z,10.23
2023-01-12T08:05:41.525Z,14.63
2023-01-12T08:08:08.897Z,11.93
2023-01-12T08:10:36.558Z,12.68
2023-01-12T08:13:04.059Z,10.32
2023-01-12T08:15:39.226Z,9.85
2023-01-12T08:18:33.083Z,11.82
2023-01-12T08:21:04.338Z,9.65
2023-01-12T08:23:41.935Z,10.63
2023-01-12T08:26:15.129Z,8.40
2023-01-12T08:28:51.250Z,8.38
2023-01-12T08:31:21.949Z,10.13
2023-01-12T08:33:49.304Z,10.45
2023-01-12T08:36:17.600Z,11.32
2023-01-12T08:38:45.465Z,12.48
2023-01-12T08:41:31.232Z,11.35
2023-01-12T08:44:01.971Z,10.45
2023-01-12T08:46:36.867Z,11.73
2023-01-12T08:49:16.629Z,12.73
2023-01-12T08:51:44.900Z,12.43
2023-01-12T08:54:14.965Z,10.65
2023-01-12T08:56:42.281Z,13.57
2023-01-12T08:59:09.792Z,15.80
2023-01-12T09:01:37.843Z,12.68
2023-01-12T09:04:05.915Z,14.70
2023-01-12T09:06:40.174Z,15.52
2023-01-12T09:09:16.887Z,12.43
2023-01-12T09:11:44.806Z,10.68
2023-01-12T09:14:13.405Z,12.80
2023-01-12T09:16:41.206Z,11.57
2023-01-12T09:19:09.040Z,10.48
2023-01-12T09:21:41.931Z,10.80
2023-01-12T09:24:10.606Z,11.98
2023-01-12T09:26:43.566Z,12.80
2023-01-12T09:29:12.000Z,14.45
2023-01-12T09:31:41.768Z,14.30
2023-01-12T09:34:09.206Z,12.68
2023-01-12T09:36:38.433Z,12.50
2023-01-12T09:39:09.825Z,10.25
2023-01-12T09:42:04.290Z,11.77
2023-01-12T09:45:00.009Z,12.00
2023-01-12T09:48:01.223Z,9.13
2023-01-12T09:50:41.190Z,11.98
2023-01-12T09:53:19.580Z,10.23
2023-01-12T09:56:02.940Z,10.82
2023-01-12T09:58:57.072Z,10.05
2023-01-12T10:01:29.766Z,9.40
2023-01-12T10:04:01.238Z,10.52
2023-01-12T10:06:29.013Z,7.93
2023-01-12T10:09:06.801Z,9.43
2023-01-12T10:11:57.052Z,8.13
2023-01-12T10:14:34.796Z,11.23
2023-01-12T10:17:41.989Z,11.27
2023-01-12T10:20:28.123Z,7.30
2023-01-12T10:23:16.870Z,9.50
2023-01-12T10:25:48.904Z,10.35
2023-01-12T10:28:33.404Z,9.50
2023-01-12T10:31:01.768Z,8.75
2023-01-12T10:33:34.364Z,9.73
2023-01-12T10:36:17.930Z,12.40
2023-01-12T10:39:03.166Z,10.52
2023-01-12T10:41:33.042Z,8.10
2023-01-12T10:44:00.261Z,8.13
2023-01-12T10:46:32.509Z,9.82
2023-01-12T10:49:23.024Z,9.80
2023-01-12T10:52:08.960Z,10.35
2023-01-12T10:54:41.450Z,11.32
2023-01-12T10:57:23.554Z,9.70
2023-01-12T10:59:53.852Z,12.50
2023-01-12T11:02:23.186Z,8.57
2023-01-12T11:04:52.937Z,11.52
2023-01-12T11:07:29.123Z,11.23
2023-01-12T11:10:19.476Z,12.65
2023-01-12T11:12:59.087Z,11.27
2023-01-12T11:15:27.977Z,10.15
2023-01-12T11:18:27.792Z,12.73
2023-01-12T11:21:07.036Z,13.07
2023-01-12T11:23:54.435Z,10.80
2023-01-12T11:26:31.063Z,11.75
2023-01-12T11:29:22.829Z,11.00
2023-01-12T11:31:54.156Z,8.55
2023-01-12T11:34:29.980Z,9.50
2023-01-12T11:37:11.352Z,11.70
2023-01-12T11:39:40.664Z,12.02
2023-01-12T11:42:39.156Z,8.65
2023-01-12T11:45:14.135Z,10.05
2023-01-12T11:47:51.110Z,10.18
2023-01-12T11:50:23.256Z,11.35
2023-01-12T11:52:50.982Z,9.95
2023-01-12T11:55:35.327Z,10.18
2023-01-12T11:58:17.142Z,8.50
2023-01-12T12:00:56.498Z,9.90
2023-01-12T12:03:42.020Z,9.88
2023-01-12T12:06:22.010Z,9.70
2023-01-12T12:08:58.387Z,7.72
2023-01-12T12:11:39.350Z,10.73
2023-01-12T12:14:57.433Z,10.30
2023-01-12T12:17:44.715Z,9.43
2023-01-12T12:20:31.783Z,8.63
2023-01-12T12:23:07.354Z,9.55
2023-01-12T12:26:11.427Z,8.13
2023-01-12T12:28:59.872Z,7.55
2023-01-12T12:32:08.968Z,8.10
2023-01-12T12:35:12.243Z,6.80
2023-01-12T12:38:18.846Z,4.40
2023-01-12T12:41:25.427Z,6.55
2023-01-12T12:45:01.379Z,6.75
2023-01-12T12:47:56.612Z,6.22
2023-01-12T12:50:54.757Z,5.18
2023-01-12T12:53:47.386Z,6.07
2023-01-12T12:56:17.715Z,4.97
2023-01-12T12:58:47.106Z,4.65
2023-01-12T13:01:42.458Z,4.65
2023-01-12T13:06:46.272Z,4.90
2023-01-12T13:09:16.281Z,5.90
2023-01-12T13:11:55.892Z,5.07
2023-01-12T13:14:38.772Z,5.55
2023-01-12T13:17:21.165Z,5.13
2023-01-12T13:19:51.949Z,4.45
2023-01-12T13:22:32.740Z,4.03
2023-01-12T13:25:10.454Z,4.72
2023-01-12T13:28:00.526Z,4.63
2023-01-12T13:30:30.818Z,5.50
2023-01-12T13:33:27.765Z,2.83
2023-01-12T13:36:02.851Z,3.78
2023-01-12T13:38:37.423Z,3.45
2023-01-12T13:41:37.734Z,3.30
2023-01-12T13:44:09.956Z,1.58
2023-01-12T13:46:42.243Z,3.50
2023-01-12T13:49:24.430Z,2.08
2023-01-12T13:52:05.806Z,3.47
2023-01-12T13:54:34.629Z,2.97
2023-01-12T13:57:17.821Z,3.20
2023-01-12T14:00:08.800Z,2.63
2023-01-12T14:02:38.646Z,1.45
2023-01-12T14:05:48.305Z,3.08
2023-01-12T14:09:06.734Z,3.70
2023-01-12T14:11:47.489Z,3.28
2023-01-12T14:14:54.746Z,3.47
2023-01-12T14:17:53.173Z,2.60
2023-01-12T14:20:23.479Z,4.40
2023-01-12T14:23:12.766Z,2.75
2023-01-12T14:25:40.268Z,2.75
2023-01-12T14:28:20.348Z,2.53
2023-01-12T14:30:54.250Z,2.30
2023-01-12T14:33:35.836Z,2.15
2023-01-12T14:36:06.639Z,1.92
2023-01-12T14:38:35.364Z,2.72
2023-01-12T14:41:30.980Z,1.42
2023-01-12T14:44:16.732Z,1.55
2023-01-12T14:46:50.266Z,4.55
2023-01-12T14:49:28.783Z,2.78
2023-01-12T14:52:19.031Z,2.92
2023-01-12T14:54:46.309Z,1.90
2023-01-12T14:57:36.371Z,2.65
2023-01-12T15:00:06.219Z,2.72
2023-01-12T15:02:41.358Z,2.10
2023-01-12T15:05:11.449Z,2.22
2023-01-12T15:07:41.557Z,1.75
2023-01-12T15:10:11.799Z,3.17
2023-01-12T15:12:53.111Z,1.02
2023-01-12T15:15:48.524Z,1.35
2023-01-12T15:18:34.538Z,2.57
2023-01-12T15:21:22.124Z,2.30
2023-01-12T15:24:08.252Z,1.55
2023-01-12T15:26:35.709Z,1.90
2023-01-12T15:29:03.000Z,2.10
2023-01-12T15:31:41.331Z,2.03
2023-01-12T15:34:11.675Z,2.00
2023-01-12T15:36:38.954Z,2.30
2023-01-12T15:39:06.227Z,3.13
2023-01-12T15:41:51.961Z,2.67
2023-01-12T15:44:21.448Z,1.70
2023-01-12T15:46:48.972Z,2.20
2023-01-12T15:49:17.004Z,1.42
2023-01-12T15:51:51.998Z,1.13
2023-01-12T15:54:20.279Z,2.05
2023-01-12T15:56:48.262Z,1.40
2023-01-12T15:59:16.535Z,2.25
2023-01-12T16:01:49.282Z,1.15
2023-01-12T16:07:06.483Z,1.50
2023-01-12T16:09:33.809Z,2.13
2023-01-12T16:12:01.062Z,1.55
2023-01-12T16:14:28.345Z,0.85
2023-01-12T16:16:55.662Z,1.48
2023-01-12T16:19:23.859Z,1.42
2023-01-12T16:21:55.142Z,1.33
2023-01-12T16:24:26.408Z,2.05
2023-01-12T16:26:53.954Z,1.80
2023-01-12T16:29:22.049Z,2.15
2023-01-12T16:31:49.516Z,2.20
2023-01-12T16:34:18.773Z,1.75
2023-01-12T16:36:46.010Z,2.53
2023-01-12T16:39:13.538Z,1.52
2023-01-12T16:41:40.858Z,1.95
2023-01-12T16:44:09.600Z,3.10
2023-01-12T16:46:36.940Z,2.25
2023-01-12T16:49:05.262Z,1.83
2023-01-12T16:51:35.463Z,1.98
2023-01-12T16:54:04.692Z,2.08
2023-01-12T16:56:32.128Z,3.20
2023-01-12T16:58:59.545Z,1.52
2023-01-12T17:01:27.166Z,1.25
2023-01-12T17:03:57.904Z,1.60
2023-01-12T17:06:27.559Z,2.22
2023-01-12T17:08:55.177Z,1.70
2023-01-12T17:11:24.452Z,2.10
2023-01-12T17:13:54.216Z,1.77
2023-01-12T17:16:23.386Z,1.02
2023-01-12T17:18:51.093Z,1.83
2023-01-12T17:21:19.974Z,1.45
2023-01-12T17:23:47.757Z,3.35
2023-01-12T17:26:18.044Z,2.55
2023-01-12T17:28:46.780Z,1.75
2023-01-12T17:31:20.359Z,2.50
2023-01-12T17:33:47.921Z,2.10
2023-01-12T17:36:15.297Z,1.55
2023-01-12T17:38:42.570Z,1.73
2023-01-12T17:41:31.042Z,1.15
2023-01-12T17:43:58.846Z,1.70
2023-01-12T17:46:26.203Z,0.93
2023-01-12T17:48:53.802Z,2.60
2023-01-12T17:51:21.118Z,1.65
2023-01-12T17:53:48.376Z,1.90
2023-01-12T17:56:15.719Z,3.60
2023-01-12T17:58:42.992Z,1.92
2023-01-12T18:01:13.874Z,1.13
2023-01-12T18:03:41.222Z,1.95
2023-01-12T18:06:15.137Z,2.03
2023-01-12T18:08:50.616Z,2.08
2023-01-12T18:11:18.899Z,1.85
2023-01-12T18:13:46.907Z,1.63
2023-01-12T18:16:15.916Z,2.22
2023-01-12T18:18:44.295Z,2.42
2023-01-12T18:21:14.889Z,2.20
2023-01-12T18:23:43.572Z,2.75
2023-01-12T18:26:16.986Z,1.40
2023-01-12T18:28:44.636Z,3.03
2023-01-12T18:31:16.285Z,2.53
2023-01-12T18:33:45.223Z,2.58
2023-01-12T18:36:18.181Z,2.50
2023-01-12T18:38:45.579Z,1.67
2023-01-12T18:41:32.442Z,3.25
2023-01-12T18:44:04.531Z,3.00
2023-01-12T18:46:51.427Z,3.60
2023-01-12T18:49:26.503Z,2.20
2023-01-12T18:52:12.491Z,1.58
2023-01-12T18:54:44.362Z,2.15
2023-01-12T18:57:14.110Z,2.80
2023-01-12T18:59:42.104Z,3.33
2023-01-12T19:02:12.002Z,3.60
2023-01-12T19:04:45.562Z,3.78
2023-01-12T19:07:15.142Z,1.75
2023-01-12T19:09:42.525Z,2.75
2023-01-12T19:12:09.863Z,2.88
2023-01-12T19:14:55.424Z,3.28
2023-01-12T19:17:29.876Z,5.07
2023-01-12T19:20:00.597Z,4.68
2023-01-12T19:22:47.159Z,4.47
2023-01-12T19:25:38.205Z,4.28
2023-01-12T19:28:24.662Z,4.53
2023-01-12T19:30:52.032Z,5.82
2023-01-12T19:33:19.432Z,4.13
2023-01-12T19:35:47.814Z,2.95
2023-01-12T19:38:15.483Z,3.63
2023-01-12T19:40:46.400Z,4.43
2023-01-12T19:43:24.056Z,4.20
2023-01-12T19:45:54.504Z,4.03
2023-01-12T19:48:23.965Z,3.30
2023-01-12T19:50:52.752Z,4.22
2023-01-12T19:53:27.817Z,5.57
2023-01-12T19:55:55.272Z,4.80
2023-01-12T19:58:22.624Z,5.30
2023-01-12T20:00:50.561Z,6.25
2023-01-12T20:03:20.026Z,5.07
2023-01-12T20:05:50.836Z,5.85
2023-01-12T20:08:21.270Z,5.68
2023-01-12T20:10:59.899Z,5.15
2023-01-12T20:13:27.721Z,5.65
2023-01-12T20:15:57.503Z,4.15
2023-01-12T20:18:24.928Z,4.60
2023-01-12T20:20:53.305Z,4.55
2023-01-12T20:23:20.731Z,5.45
2023-01-12T20:25:48.040Z,3.88
2023-01-12T20:28:15.388Z,5.72
2023-01-12T20:30:43.511Z,5.40
2023-01-12T20:33:11.403Z,6.85
2023-01-12T20:35:45.365Z,4.85
2023-01-12T20:38:15.712Z,5.22
2023-01-12T20:40:44.979Z,8.48
2023-01-12T20:43:12.777Z,11.75
2023-01-12T20:45:41.775Z,8.00
2023-01-12T20:48:11.339Z,9.13
2023-01-12T20:50:46.914Z,9.55
2023-01-12T20:53:16.206Z,9.03
2023-01-12T20:55:49.802Z,9.20
2023-01-12T20:58:18.051Z,9.35
2023-01-12T21:00:45.749Z,9.25
2023-01-12T21:03:13.258Z,12.13
2023-01-12T21:05:45.850Z,11.68
2023-01-12T21:08:14.206Z,8.35
2023-01-12T21:10:49.352Z,14.98
2023-01-12T21:13:17.222Z,10.57
2023-01-12T21:15:44.835Z,14.48
2023-01-12T21:18:12.491Z,10.73
2023-01-12T21:20:44.096Z,15.73
2023-01-12T21:23:11.602Z,10.52
2023-01-12T21:25:48.081Z,15.95
2023-01-12T21:28:15.473Z,15.68
2023-01-12T21:30:42.836Z,16.77
2023-01-12T21:33:13.277Z,16.05
2023-01-12T21:35:40.910Z,15.10
2023-01-12T21:38:08.263Z,17.05
2023-01-12T21:40:35.780Z,14.65
2023-01-12T21:43:09.240Z,16.27
2023-01-12T21:45:39.331Z,14.32
2023-01-12T21:48:07.693Z,14.32
2023-01-12T21:50:36.216Z,15.25
2023-01-12T21:53:06.496Z,18.20
2023-01-12T21:55:34.129Z,15.13
2023-01-12T21:58:02.037Z,16.33
2023-01-12T22:00:29.980Z,16.95
2023-01-12T22:02:57.713Z,11.93
2023-01-12T22:05:25.579Z,12.95
2023-01-12T22:07:55.177Z,15.80
2023-01-12T22:10:23.962Z,12.43
2023-01-12T22:12:56.893Z,18.45
2023-01-12T22:15:26.241Z,16.83
2023-01-12T22:17:55.175Z,16.40
2023-01-12T22:20:24.136Z,13.68
2023-01-12T22:22:51.791Z,13.40
2023-01-12T22:25:19.311Z,14.40
2023-01-12T22:27:46.987Z,12.27
2023-01-12T22:30:17.365Z,14.75
2023-01-12T22:32:45.291Z,15.02
2023-01-12T22:35:13.641Z,10.80
2023-01-12T22:37:41.629Z,10.60
2023-01-12T22:40:10.936Z,15.60
2023-01-12T22:42:57.042Z,17.38
2023-01-12T22:45:24.422Z,14.68
2023-01-12T22:47:56.062Z,10.40
2023-01-12T22:50:24.807Z,12.13
2023-01-12T22:52:54.623Z,11.90
2023-01-12T22:55:23.144Z,14.10
2023-01-12T22:57:50.597Z,14.30
2023-01-12T23:00:19.305Z,13.32
2023-01-12T23:03:02.507Z,12.02
2023-01-12T23:05:36.246Z,14.25
2023-01-12T23:08:06.997Z,13.85
2023-01-12T23:10:34.477Z,12.07
2023-01-12T23:13:11.565Z,13.93
2023-01-12T23:15:40.665Z,12.52
2023-01-12T23:18:09.120Z,13.93
2023-01-12T23:20:36.997Z,11.68
2023-01-12T23:23:05.206Z,10.68
2023-01-12T23:25:33.377Z,11.23
2023-01-12T23:28:01.229Z,12.07
2023-01-12T23:30:33.121Z,12.63
2023-01-12T23:33:03.940Z,12.55
2023-01-12T23:35:36.786Z,12.57
2023-01-12T23:38:05.227Z,13.95
2023-01-12T23:40:32.582Z,13.27
2023-01-12T23:43:00.593Z,11.85
2023-01-12T23:45:28.246Z,12.45
2023-01-12T23:47:55.583Z,14.20
2023-01-12T23:50:22.850Z,14.85
2023-01-12T23:52:50.221Z,9.40
2023-01-12T23:55:18.163Z,11.40
2023-01-12T23:57:48.337Z,9.80
